東京国際空港の過去48時間の天気

東京国際空港 (Tokyo/Intl)

現在時刻: 10/24 12:05 JST (10/24 03:05 UTC) 以下の時間は現地時間です。

過去48時間のMETAR気象情報
時間 風向 風速(m/s) 視程 気温(℃) 湿度(%) 気圧(hPa) 天気現象
24 11:30 東北東 8 10km以上 20 73 1022
24 11:00 東北東 8 10km以上 20 73 1022
24 10:30 東北東 8 10km以上 20 73 1023
24 10:00 北東 8 10km以上 20 73 1023
24 09:30 北東 7 10km以上 19 78 1024
24 09:00 北東 6 10km以上 19 78 1024
24 08:30 北北東 7 10km以上 19 78 1023
24 08:00 北北東 6 10km以上 19 78 1024
24 07:30 北北東 5 10km以上 18 88 1023
24 07:00 北北東 5 10km以上 18 83 1023
24 06:30 北北東 6 10km以上 18 83 1022
24 06:00 北北東 5 10km以上 18 83 1022
24 05:30 北北東 5 10km以上 18 88 1022
24 05:00 5 10km以上 18 83 1022
24 04:30 北北東 4 10km以上 18 88 1022
24 04:00 北北東 5 10km以上 18 88 1021
24 03:30 北北東 5 10km以上 18 88 1021
24 03:00 北北東 4 10km以上 18 88 1021
24 02:30 北北東 5 10km以上 18 88 1021
24 02:00 北北東 4 10km以上 19 78 1021
24 01:00 北北東 3 10km以上 19 78 1021
24 00:30 北東 4 10km以上 19 83 1021
24 00:00 北東 3 10km以上 19 83 1021
23 23:30 東北東 3 10km以上 19 83 1021
23 23:00 4 10km以上 19 83 1021
23 22:30 3 10km以上 19 83 1021
23 22:00 4 10km以上 19 83 1021
23 21:30 3 10km以上 19 83 1021
23 21:00 5 10km以上 19 83 1021
23 20:30 5 10km以上 19 83 1020
23 20:00 4 10km以上 20 78 1020
23 19:30 4 10km以上 20 73 1020
23 19:00 5 10km以上 20 73 1020
23 18:30 5 10km以上 20 78 1019
23 18:00 東南東 6 10km以上 20 78 1019
23 17:30 東南東 7 10km以上 20 78 1018
23 17:00 東南東 7 10km以上 20 78 1018
23 16:30 東南東 7 10km以上 21 78 1017
23 16:00 南南東 2 10km以上 22 60 1017
23 15:30 3 10km以上 22 60 1016
23 15:00 南南東 3 10km以上 22 60 1016
23 14:30 南東 3 10km以上 22 69 1016
23 14:00 南東 4 10km以上 22 65 1015
23 13:30 東南東 3 10km以上 21 73 1015
23 13:00 東南東 4 10km以上 21 69 1015
23 12:30 南東 3 10km以上 21 69 1015
23 12:00 南東 4 10km以上 21 73 1015
23 11:30 東南東 3 10km以上 21 73 1015
23 11:00 南東 4 10km以上 20 73 1015
23 10:30 東南東 2 10km以上 20 73 1016
23 10:00 東南東 3 10km以上 19 78 1016
23 09:30 2 10km以上 19 78 1015
23 09:00 2 10km以上 19 73 1015
23 08:30 南西 2 10km以上 19 73 1016
23 08:00 西 2 10km以上 17 83 1016
23 07:30 西 4 10km以上 16 88 1015
23 07:00 西 4 10km以上 15 94 1015
23 06:30 西 2 10km以上 14 94 1014
23 06:00 西北西 2 10km以上 14 94 1014
23 05:30 西 3 10km以上 14 94 1014
23 05:00 西 4 10km以上 14 94 1014
23 04:30 西 3 10km以上 14 94 1013
23 04:00 西 2 10km以上 14 94 1012
23 03:30 西北西 3 10km以上 14 88 1012
RJTT 240230Z 06015KT 9999 FEW015 BKN060 BKN/// 20/15 Q1022 BECMG 05016KT RMK 1CU015 5SC060 A3020
RJTT 240200Z 06016KT 9999 FEW015 SCT180 BKN/// 20/15 Q1022 BECMG 05016KT RMK 1CU015 3AC180 A3021
RJTT 240130Z 06016KT 9999 FEW015 BKN040 BKN060 20/15 Q1023 BECMG 05016KT RMK 1CU015 5SC040 7SC060 A3022
RJTT 240100Z 05015KT 9999 FEW015 BKN040 20/15 Q1023 NOSIG RMK 1CU015 7SC040 A3023
RJTT 240030Z 05014KT 9999 FEW015 BKN038 19/15 Q1024 NOSIG RMK 1CU015 7SC038 A3024
RJTT 240000Z 04012KT 9999 FEW015 SCT035 BKN060 19/15 Q1024 NOSIG RMK 1CU015 3SC035 5SC060 A3024
RJTT 232330Z 03013KT 9999 FEW020 BKN060 BKN/// 19/15 Q1023 NOSIG RMK 1CU020 6SC060 A3023
RJTT 232300Z 02011KT 9999 FEW020 BKN060 19/15 Q1024 NOSIG RMK 1CU020 7SC060 A3024
RJTT 232230Z 02010KT 9999 FEW020 BKN060 18/16 Q1023 NOSIG RMK 1CU020 7SC060 A3023
RJTT 232200Z 02010KT 9999 FEW020 BKN060 BKN190 18/15 Q1023 NOSIG RMK 1CU020 5SC060 7AC190 A3021
RJTT 232130Z 02011KT 9999 FEW020 BKN060 BKN200 18/15 Q1022 NOSIG RMK 1CU020 5SC060 7AC200 A3019
RJTT 232100Z 02010KT 9999 FEW020 BKN060 BKN200 18/15 Q1022 NOSIG RMK 1CU020 6SC060 7AC200 A3019
RJTT 232030Z 02010KT 9999 FEW020 BKN060 BKN200 18/16 Q1022 NOSIG RMK 1CU020 6SC060 7AC200 A3018
RJTT 232000Z 01009KT 9999 FEW020 BKN060 BKN200 18/15 Q1022 NOSIG RMK 1CU020 6SC060 7AC200 A3019
RJTT 231930Z 02008KT 9999 FEW020 SCT060 BKN200 18/16 Q1022 NOSIG RMK 1CU020 4SC060 7AC200 A3018
RJTT 231900Z 02009KT 9999 FEW020 BKN060 BKN200 18/16 Q1021 NOSIG RMK 1CU020 5SC060 7AC200 A3017
RJTT 231830Z 02009KT 9999 FEW020 BKN060 BKN200 18/16 Q1021 NOSIG RMK 1CU020 6SC060 7AC200 A3017
RJTT 231800Z 03007KT 9999 FEW020 BKN050 18/16 Q1021 NOSIG RMK 1CU020 7SC050 A3017
RJTT 231730Z 02009KT 9999 FEW020 BKN050 18/16 Q1021 NOSIG RMK 1CU020 7SC050 A3017
RJTT 231700Z 02007KT 9999 FEW020 BKN050 19/15 Q1021 NOSIG RMK 1CU020 7SC050 A3018
RJTT 231600Z 02005KT 9999 FEW030 BKN060 19/15 Q1021 NOSIG RMK 1CU030 7SC060 A3017
RJTT 231530Z 04007KT 9999 FEW030 BKN060 19/16 Q1021 NOSIG RMK 1CU030 7SC060 A3017
RJTT 231500Z 04006KT 9999 FEW030 BKN060 BKN/// 19/16 Q1021 NOSIG RMK 1CU030 6SC060 A3016
RJTT 231430Z 06005KT 9999 FEW030 BKN060 BKN/// 19/16 Q1021 BECMG TL1530 04010KT RMK 1CU030 6SC060 A3017
RJTT 231400Z 08007KT 9999 FEW030 BKN060 19/16 Q1021 NOSIG RMK 1CU030 7SC060 A3016
RJTT 231330Z 09006KT 9999 FEW030 BKN060 19/16 Q1021 NOSIG RMK 1CU030 7SC060 A3017
RJTT 231300Z 09007KT 9999 FEW030 BKN060 19/16 Q1021 NOSIG RMK 1CU030 7SC060 A3017
RJTT 231230Z 10006KT 9999 FEW030 BKN060 19/16 Q1021 NOSIG RMK 1CU030 7SC060 A3016
RJTT 231200Z 10009KT 9999 FEW020 BKN060 19/16 Q1021 NOSIG RMK 1CU020 7SC060 A3016
RJTT 231130Z 09009KT 9999 FEW020 SCT060 BKN/// 19/16 Q1020 NOSIG RMK 1CU020 4SC060 A3015
RJTT 231100Z 10008KT 9999 FEW020 SCT060 BKN/// 20/16 Q1020 NOSIG RMK 1CU020 4SC060 A3014
RJTT 231030Z 09008KT 9999 FEW020 BKN040 BKN/// 20/15 Q1020 NOSIG RMK 1CU020 5SC040 A3014
RJTT 231000Z 09009KT 9999 FEW020 BKN040 BKN050 20/15 Q1020 NOSIG RMK 1CU020 5CU040 6SC050 A3013
RJTT 230930Z 10010KT 9999 FEW020 BKN035 BKN050 20/16 Q1019 NOSIG RMK 1CU020 6CU035 7SC050 A3012
RJTT 230900Z 11012KT 9999 FEW020 SCT030 BKN070 20/16 Q1019 NOSIG RMK 1CU020 4CU030 6AC070 A3010
RJTT 230830Z 12013KT 9999 FEW020 BKN/// 20/16 Q1018 NOSIG RMK 1CU020 A3008
RJTT 230800Z 12013KT 9999 FEW020 BKN/// 20/16 Q1018 NOSIG RMK 1CU020 A3006
RJTT 230730Z 12013KT 9999 FEW030 BKN/// 21/17 Q1017 NOSIG RMK 1CU030 A3005
RJTT 230700Z 15003KT 9999 FEW030 BKN/// 22/14 Q1017 BECMG TL0720 12014KT RMK 1CU030 A3003
RJTT 230630Z 17006KT 9999 FEW030 BKN/// 22/14 Q1016 NOSIG RMK 1CU030 A3001
RJTT 230600Z 16005KT 140V200 9999 FEW030 BKN/// 22/14 Q1016 NOSIG RMK 1CU030 A3000
RJTT 230530Z 14006KT 9999 FEW030 BKN/// 22/16 Q1016 NOSIG RMK 1CU030 A3000
RJTT 230500Z 13007KT 9999 FEW030 BKN/// 22/15 Q1015 NOSIG RMK 1CU030 A2999
RJTT 230430Z 11006KT 9999 FEW030 BKN/// 21/16 Q1015 NOSIG
RJTT 230400Z 12007KT 9999 FEW030 BKN/// 21/15 Q1015 NOSIG RMK 1CU030 A2997
RJTT 230330Z 13005KT 9999 FEW030 21/15 Q1015 NOSIG RMK 1CU030 A2998
RJTT 230300Z 13007KT 9999 FEW030 21/16 Q1015 NOSIG RMK 1CU030 A2999
RJTT 230230Z 12005KT 9999 FEW030 21/16 Q1015 NOSIG RMK 1CU030 A2999
RJTT 230200Z 14007KT 110V170 9999 FEW030 20/15 Q1015 NOSIG RMK 1CU030 A3000
RJTT 230130Z 11003KT 9999 FEW015 20/15 Q1016 NOSIG RMK 1CU015 A3000
RJTT 230100Z 11005KT 080V150 9999 FEW015 19/15 Q1016 NOSIG RMK 1CU015 A3000
RJTT 230030Z 08004KT 9999 FEW020 19/15 Q1015 NOSIG RMK 1CU020 A3000
RJTT 230000Z 08003KT 9999 FEW020 19/14 Q1015 BECMG 30005KT
RJTT 222330Z 23003KT 210V320 9999 FEW020 19/14 Q1016 BECMG 30005KT RMK 1CU020 A3001
RJTT 222300Z 26004KT 240V330 9999 FEW010 17/14 Q1016 NOSIG RMK 1CU010 A3000
RJTT 222230Z 27007KT 250V320 9999 FEW010 16/14 Q1015 NOSIG RMK 1CU010 A2999
RJTT 222200Z 26008KT 240V320 9999 FEW010 15/14 Q1015 NOSIG RMK 1CU010 A2997
RJTT 222130Z 27004KT 9999 FEW010 14/13 Q1014 NOSIG RMK 1CU010 A2996
RJTT 222100Z 30004KT 9999 FEW050 14/13 Q1014 NOSIG RMK 1SC050 A2995
RJTT 222030Z 28006KT 9999 FEW050 14/13 Q1014 NOSIG RMK 1SC050 A2994
RJTT 222000Z 27007KT 9999 FEW050 14/13 Q1014 NOSIG RMK 1SC050 A2995
RJTT 221930Z 27005KT 9999 FEW050 14/13 Q1013 NOSIG RMK 1SC050 A2992
RJTT 221900Z 28003KT 9999 FEW050 14/13 Q1012 NOSIG RMK 1SC050 A2991
RJTT 221830Z 30006KT 9999 FEW050 14/12 Q1012 NOSIG RMK 1SC050 A2991